Pagrindinis puslapis
METAR-TAF:

METAR-TAF

Oro uostai :

Vamdrup

Koldingas, Danija

platuma: 55-26N, ilguma: 009-20E, Aukštis: 44 m

Dabartinis oras

Ataskaita buvo paskelbta 38 minutes, ne 19:50 UTC
Vėjas 11 kt iš Pietryčių
Temperatūra 24°C
Drėgmė 69%
Slėgis 1011 hPa

METAR: EKVD 171950Z AUTO 14011KT //// ///////// 24/18 Q1011

Laikas: 22:28 (20:28 UTC)

Prognozė

Ataskaita buvo paskelbta 8 valandos ir 35 minutes, ne 11:53 UTC
Prognozė galioja nuo 17 metu 12 UTC su 17 metu 16 UTC
Vėjas 12 kt iš Pietryčių
Matomumas 10 km arba daugiau
nėra debesų žemiau 1500 m ir nėra kamuolinių lietaus debesų
Laikinai
nuo 17 metu 12 UTC su 17 metu 16 UTC
Vėjas 15 kt iš Pietryčių su gūsio iki 28 kt

TAF: EKVD 171153Z 1712/1716 14012KT CAVOK TEMPO 1712/1716 14015G28KT

Orai ataskaitas ir orų prognozės (METAR, TAF).

turimą stotys yra geltonos ir raudonos taškus žemėlapyje.

Perkelti pele per norėdami pamatyti stoties vardą.

Tada spustelėkite, norėdami matyti oro stebėjimo ir prognozės.

Norėdami pakeisti žemėlapį: spustelėkite ant žalios mygtukų su juodo kryžiaus žemyn,; žalią mygtuką su brūkšneliu, jei norite nutolinti; arba žalių rodyklių gretimoms žemėlapius.


METAR-TAF: